Alto Crest, New Mexico
Current Conditions -  °F | °C
As of 2:15 AM on Monday 20 Oct 2014 (Local Time) from KSRR Reporting Station
Overcast Overcast  
Wind Chill: 10°   Ceiling: 1800
Heat Index: 10°   Visibility: 10mi
Dew Point:   Wind: 0mph
Humidity: 87%   Direction: NA
Pressure: 30.25"   Gusts: NA
Location:  33.3909°N, 105.634°W
Report Text: KSRR 200815Z AUTO 00000KT 10SM BKN018 OVC024 10/08 A3025 RMK AO2
Loading
Personal Weather Stations






























Interactive Weather Map
Tropical Storm Tracking
New forecast layout! Learn more

10-Day Weather Forecast

Advertisements
Track Severe Weather on mobile